createdAt,value
2018-07-02T00:00:14.413Z,57.94
2018-07-02T00:00:46.053Z,57.91
2018-07-02T00:01:17.724Z,58.06
2018-07-02T00:01:49.316Z,58.00
2018-07-02T00:02:20.935Z,58.05
2018-07-02T00:02:52.574Z,58.00
2018-07-02T00:03:24.204Z,58.02
2018-07-02T00:03:55.815Z,58.00
2018-07-02T00:04:27.417Z,58.04
2018-07-02T00:04:59.029Z,58.12
2018-07-02T00:05:30.628Z,58.12
2018-07-02T00:06:02.244Z,58.08
2018-07-02T00:06:33.893Z,58.09
2018-07-02T00:07:05.538Z,58.00
2018-07-02T00:07:37.151Z,58.08
2018-07-02T00:08:08.751Z,58.10
2018-07-02T00:08:40.368Z,58.09
2018-07-02T00:09:12.001Z,58.13
2018-07-02T00:09:43.649Z,58.14
2018-07-02T00:10:15.289Z,58.15
2018-07-02T00:10:46.898Z,58.16
2018-07-02T00:11:18.573Z,58.17
2018-07-02T00:11:50.192Z,58.16
2018-07-02T00:12:21.799Z,58.22
2018-07-02T00:12:53.399Z,58.16
2018-07-02T00:13:25.010Z,58.23
2018-07-02T00:13:56.613Z,58.26
2018-07-02T00:14:28.241Z,58.25
2018-07-02T00:14:59.878Z,58.29
2018-07-02T00:15:31.490Z,58.47
2018-07-02T00:16:03.088Z,58.32
2018-07-02T00:16:34.757Z,58.46
2018-07-02T00:17:06.355Z,58.28
2018-07-02T00:17:37.982Z,58.37
2018-07-02T00:18:09.625Z,58.44
2018-07-02T00:18:41.238Z,58.51
2018-07-02T00:19:12.865Z,58.43
2018-07-02T00:19:44.473Z,58.46
2018-07-02T00:20:16.092Z,58.71
2018-07-02T00:20:47.726Z,58.82
2018-07-02T00:21:19.361Z,58.46
2018-07-02T00:21:51.025Z,58.40
2018-07-02T00:22:22.651Z,58.15
2018-07-02T00:22:54.251Z,57.94
2018-07-02T00:23:25.836Z,57.87
2018-07-02T00:23:57.429Z,58.07
2018-07-02T00:24:29.037Z,58.18
2018-07-02T00:25:00.655Z,58.16
2018-07-02T00:25:32.279Z,57.97
2018-07-02T00:26:03.880Z,57.88
2018-07-02T00:26:35.524Z,57.85
2018-07-02T00:27:07.181Z,57.94
2018-07-02T00:27:38.789Z,57.92
2018-07-02T00:28:10.394Z,57.84
2018-07-02T00:28:42.011Z,57.85
2018-07-02T00:29:13.612Z,57.90
2018-07-02T00:29:45.221Z,58.00
2018-07-02T00:30:16.815Z,57.98
2018-07-02T00:30:48.412Z,57.94
2018-07-02T00:31:20.024Z,57.91
2018-07-02T00:31:51.725Z,57.98
2018-07-02T00:32:23.264Z,57.95
2018-07-02T00:32:54.881Z,57.95
2018-07-02T00:33:26.499Z,57.95
2018-07-02T00:33:58.107Z,57.96
2018-07-02T00:34:29.700Z,57.98
2018-07-02T00:35:01.292Z,58.03
2018-07-02T00:35:32.897Z,57.99
2018-07-02T00:36:04.502Z,58.00
2018-07-02T00:36:36.102Z,58.03
2018-07-02T00:37:07.733Z,57.97
2018-07-02T00:37:39.361Z,57.99
2018-07-02T00:38:10.973Z,58.01
2018-07-02T00:38:42.572Z,58.00
2018-07-02T00:39:14.178Z,58.01
2018-07-02T00:39:45.787Z,58.04
2018-07-02T00:40:17.429Z,58.04
2018-07-02T00:40:49.039Z,58.01
2018-07-02T00:41:20.666Z,58.04
2018-07-02T00:41:52.261Z,58.03
2018-07-02T00:42:23.904Z,58.04
2018-07-02T00:42:55.539Z,58.05
2018-07-02T00:43:27.163Z,58.05
2018-07-02T00:43:58.765Z,58.08
2018-07-02T00:44:30.385Z,58.08
2018-07-02T00:45:01.998Z,58.08
2018-07-02T00:45:33.631Z,58.09
2018-07-02T00:46:05.265Z,58.07
2018-07-02T00:46:36.875Z,58.11
2018-07-02T00:47:08.529Z,58.07
2018-07-02T00:47:40.136Z,58.09
2018-07-02T00:48:11.757Z,58.09
2018-07-02T00:48:43.351Z,58.13
2018-07-02T00:49:14.950Z,58.17
2018-07-02T00:49:46.558Z,58.30
2018-07-02T00:50:18.190Z,58.33
2018-07-02T00:50:49.787Z,58.22
2018-07-02T00:51:21.380Z,58.22
2018-07-02T00:51:52.990Z,58.27
2018-07-02T00:52:24.639Z,58.29
2018-07-02T00:52:56.264Z,58.33
2018-07-02T00:53:27.893Z,58.32
2018-07-02T00:53:59.529Z,58.34
2018-07-02T00:54:31.158Z,58.33
2018-07-02T00:55:02.765Z,58.36
2018-07-02T00:55:34.392Z,58.38
2018-07-02T00:56:06.030Z,58.37
2018-07-02T00:56:37.642Z,58.36
2018-07-02T00:57:09.277Z,58.43
2018-07-02T00:57:40.885Z,58.42
2018-07-02T00:58:12.469Z,58.37
2018-07-02T00:58:44.097Z,58.42
2018-07-02T00:59:15.699Z,58.40
2018-07-02T00:59:47.337Z,58.41
2018-07-02T01:00:18.955Z,58.40
2018-07-02T01:00:50.593Z,58.40
2018-07-02T01:01:22.183Z,58.37
2018-07-02T01:01:53.780Z,58.41
2018-07-02T01:02:25.399Z,58.43
2018-07-02T01:02:57.026Z,58.45
2018-07-02T01:03:28.631Z,58.45
2018-07-02T01:04:00.233Z,58.47
2018-07-02T01:04:31.842Z,58.50
2018-07-02T01:05:03.449Z,58.56
2018-07-02T01:05:35.053Z,58.63
2018-07-02T01:06:06.661Z,58.61
2018-07-02T01:06:38.272Z,58.41
2018-07-02T01:07:09.972Z,58.52
2018-07-02T01:07:41.578Z,58.54
2018-07-02T01:08:13.185Z,58.56
2018-07-02T01:08:44.780Z,58.64
2018-07-02T01:09:16.393Z,58.90
2018-07-02T01:09:48.020Z,59.24
2018-07-02T01:10:19.652Z,59.32
2018-07-02T01:10:51.256Z,59.43
2018-07-02T01:11:22.871Z,59.22
2018-07-02T01:11:54.484Z,59.27
2018-07-02T01:12:26.104Z,59.11
2018-07-02T01:12:57.725Z,59.44
2018-07-02T01:13:29.341Z,59.59
2018-07-02T01:14:00.973Z,59.37
2018-07-02T01:14:32.596Z,59.49
2018-07-02T01:15:04.210Z,59.37
2018-07-02T01:15:35.800Z,59.24
2018-07-02T01:16:07.395Z,59.10
2018-07-02T01:16:39.025Z,59.04
2018-07-02T01:17:10.657Z,59.08
2018-07-02T01:17:42.250Z,59.06
2018-07-02T01:18:13.858Z,59.20
2018-07-02T01:18:45.484Z,59.24
2018-07-02T01:19:17.113Z,59.12
2018-07-02T01:19:48.740Z,59.12
2018-07-02T01:20:20.364Z,59.11
2018-07-02T01:20:51.992Z,59.07
2018-07-02T01:21:23.612Z,59.07
2018-07-02T01:21:55.238Z,59.09
2018-07-02T01:22:26.881Z,59.09
2018-07-02T01:22:58.499Z,59.10
2018-07-02T01:23:30.121Z,59.06
2018-07-02T01:24:01.744Z,59.02
2018-07-02T01:24:33.371Z,59.04
2018-07-02T01:25:04.981Z,59.00
2018-07-02T01:25:36.610Z,59.00
2018-07-02T01:26:08.249Z,58.98
2018-07-02T01:26:39.874Z,59.01
2018-07-02T01:27:11.499Z,59.02
2018-07-02T01:27:43.153Z,59.01
2018-07-02T01:28:14.780Z,59.01
2018-07-02T01:28:46.403Z,59.02
2018-07-02T01:29:18.035Z,59.04
2018-07-02T01:29:49.660Z,59.05
2018-07-02T01:30:21.258Z,59.05
2018-07-02T01:30:52.889Z,59.08
2018-07-02T01:31:24.510Z,59.04
2018-07-02T01:31:56.150Z,59.03
2018-07-02T01:32:27.771Z,59.05
2018-07-02T01:32:59.429Z,58.99
2018-07-02T01:33:31.079Z,59.03
2018-07-02T01:34:02.681Z,59.08
2018-07-02T01:34:34.293Z,59.11
2018-07-02T01:35:05.907Z,59.05
2018-07-02T01:35:37.521Z,59.08
2018-07-02T01:36:09.148Z,59.15
2018-07-02T01:36:40.775Z,59.12
2018-07-02T01:37:12.399Z,59.10
2018-07-02T01:37:44.020Z,59.09
2018-07-02T01:38:15.654Z,59.08
2018-07-02T01:38:47.257Z,59.08
2018-07-02T01:39:18.877Z,59.09
2018-07-02T01:39:50.517Z,59.06
2018-07-02T01:40:22.157Z,59.08
2018-07-02T01:40:53.781Z,59.02
2018-07-02T01:41:25.394Z,59.01
2018-07-02T01:41:57.012Z,59.05
2018-07-02T01:42:28.685Z,59.15
2018-07-02T01:43:00.315Z,59.06
2018-07-02T01:43:32.049Z,59.01
2018-07-02T01:44:03.666Z,59.06
2018-07-02T01:44:35.301Z,59.04
2018-07-02T01:45:06.925Z,59.07
2018-07-02T01:45:38.524Z,59.06
2018-07-02T01:46:10.124Z,59.10
2018-07-02T01:46:41.712Z,59.06
2018-07-02T01:47:13.333Z,59.05
2018-07-02T01:47:45.017Z,59.22
2018-07-02T01:48:16.629Z,59.40
2018-07-02T01:48:48.261Z,59.46
2018-07-02T01:49:19.896Z,59.54
2018-07-02T01:49:51.516Z,59.47
2018-07-02T01:50:23.119Z,59.47
2018-07-02T01:50:54.740Z,59.44
2018-07-02T01:51:26.369Z,59.43
2018-07-02T01:51:58.006Z,59.46
2018-07-02T01:52:29.608Z,59.56
2018-07-02T01:53:01.269Z,59.47
2018-07-02T01:53:32.895Z,59.44
2018-07-02T01:54:04.520Z,59.42
2018-07-02T01:54:36.123Z,59.46
2018-07-02T01:55:07.745Z,59.45
2018-07-02T01:55:39.361Z,59.49
2018-07-02T01:56:10.979Z,59.50
2018-07-02T01:56:42.597Z,59.52
2018-07-02T01:57:14.209Z,59.55
2018-07-02T01:57:45.821Z,59.49
2018-07-02T01:58:17.474Z,59.62
2018-07-02T01:58:49.081Z,59.64
2018-07-02T01:59:20.692Z,59.62
2018-07-02T01:59:52.291Z,59.86
2018-07-02T02:00:24.002Z,60.31
2018-07-02T02:00:55.619Z,60.09
2018-07-02T02:01:27.238Z,60.13
2018-07-02T02:01:58.830Z,59.92
2018-07-02T02:02:30.452Z,59.84
2018-07-02T02:03:02.100Z,59.76
2018-07-02T02:03:33.733Z,59.79
2018-07-02T02:04:05.335Z,59.79
2018-07-02T02:04:36.935Z,59.72
2018-07-02T02:05:08.531Z,59.68
2018-07-02T02:05:40.121Z,59.70
2018-07-02T02:06:11.704Z,59.67
2018-07-02T02:06:43.333Z,59.70
2018-07-02T02:07:14.942Z,59.69
2018-07-02T02:07:46.553Z,59.61
2018-07-02T02:08:18.163Z,59.61
2018-07-02T02:08:49.767Z,59.56
2018-07-02T02:09:21.401Z,59.56
2018-07-02T02:09:53.004Z,59.67
2018-07-02T02:10:24.664Z,59.63
2018-07-02T02:10:56.256Z,59.62
2018-07-02T02:11:27.836Z,59.70
2018-07-02T02:11:59.455Z,59.70
2018-07-02T02:12:31.065Z,59.75
2018-07-02T02:13:02.709Z,59.75
2018-07-02T02:13:34.336Z,59.74
2018-07-02T02:14:05.919Z,59.79
2018-07-02T02:14:37.546Z,59.81
2018-07-02T02:15:09.154Z,59.83
2018-07-02T02:15:40.745Z,59.78
2018-07-02T02:16:12.360Z,59.82
2018-07-02T02:16:43.973Z,59.79
2018-07-02T02:17:15.577Z,59.79
2018-07-02T02:17:47.189Z,59.83
2018-07-02T02:18:18.817Z,59.82
2018-07-02T02:18:50.448Z,59.85
2018-07-02T02:19:22.150Z,59.95
2018-07-02T02:19:53.777Z,59.89
2018-07-02T02:20:25.401Z,59.95
2018-07-02T02:20:57.018Z,60.06
2018-07-02T02:21:28.621Z,60.05
2018-07-02T02:22:00.249Z,60.03
2018-07-02T02:22:31.841Z,60.03
2018-07-02T02:23:03.466Z,60.08
2018-07-02T02:23:35.097Z,60.08
2018-07-02T02:24:06.705Z,60.11
2018-07-02T02:24:38.322Z,60.12
2018-07-02T02:25:09.940Z,60.05
2018-07-02T02:25:41.550Z,60.07
2018-07-02T02:26:13.166Z,60.07
2018-07-02T02:26:44.797Z,60.25
2018-07-02T02:27:16.389Z,60.24
2018-07-02T02:27:48.026Z,60.22
2018-07-02T02:28:19.660Z,60.23
2018-07-02T02:28:51.302Z,60.12
2018-07-02T02:29:22.925Z,60.13
2018-07-02T02:29:54.538Z,60.14
2018-07-02T02:30:26.132Z,60.13
2018-07-02T02:30:57.747Z,60.14
2018-07-02T02:31:29.372Z,60.10
2018-07-02T02:32:00.994Z,60.08
2018-07-02T02:32:32.609Z,60.11
2018-07-02T02:33:04.217Z,60.10
2018-07-02T02:33:35.875Z,60.10
2018-07-02T02:34:07.496Z,60.08
2018-07-02T02:34:39.092Z,60.07
2018-07-02T02:35:10.710Z,60.05
2018-07-02T02:35:42.322Z,60.05
2018-07-02T02:36:14.017Z,60.02
2018-07-02T02:36:45.604Z,60.02
2018-07-02T02:37:17.207Z,59.97
2018-07-02T02:37:48.838Z,59.98
2018-07-02T02:38:20.547Z,60.03
2018-07-02T02:38:52.123Z,60.01
2018-07-02T02:39:23.761Z,59.98
2018-07-02T02:39:55.364Z,59.94
2018-07-02T02:40:26.968Z,59.97
2018-07-02T02:40:58.586Z,60.30
2018-07-02T02:41:30.200Z,60.26
2018-07-02T02:42:01.842Z,60.13
2018-07-02T02:42:33.469Z,60.02
2018-07-02T02:43:05.098Z,59.99
2018-07-02T02:43:36.715Z,59.83
2018-07-02T02:44:08.333Z,59.74
2018-07-02T02:44:39.969Z,59.51
2018-07-02T02:45:11.597Z,59.39
2018-07-02T02:45:43.221Z,59.09
2018-07-02T02:46:14.812Z,58.70
2018-07-02T02:46:46.417Z,58.46
2018-07-02T02:47:18.004Z,58.42
2018-07-02T02:47:49.637Z,58.41
2018-07-02T02:48:21.241Z,58.47
2018-07-02T02:48:52.864Z,58.41
2018-07-02T02:49:24.492Z,58.02
2018-07-02T02:49:56.099Z,52.39
2018-07-02T02:50:27.692Z,48.54
2018-07-02T02:50:59.310Z,47.33
2018-07-02T02:51:30.940Z,47.03
2018-07-02T02:52:02.550Z,45.63
2018-07-02T02:52:34.168Z,45.31
2018-07-02T02:53:05.805Z,44.50
2018-07-02T02:53:37.434Z,43.09
2018-07-02T02:54:09.062Z,42.90
2018-07-02T02:54:40.678Z,43.13
2018-07-02T02:55:12.278Z,42.25
2018-07-02T02:55:43.891Z,43.06
2018-07-02T02:56:15.521Z,44.46
2018-07-02T02:56:47.137Z,45.50
2018-07-02T02:57:18.765Z,45.98
2018-07-02T02:57:50.415Z,46.43
2018-07-02T02:58:22.037Z,46.74
2018-07-02T02:58:53.688Z,46.88
2018-07-02T02:59:25.281Z,47.34
2018-07-02T02:59:56.901Z,47.57
2018-07-02T03:00:28.515Z,47.62
2018-07-02T03:01:00.145Z,47.67
2018-07-02T03:01:31.761Z,47.60
2018-07-02T03:02:03.393Z,47.70
2018-07-02T03:02:35.007Z,47.81
2018-07-02T03:03:06.609Z,47.90
2018-07-02T03:03:38.265Z,47.91
2018-07-02T03:04:09.881Z,47.89
2018-07-02T03:04:41.498Z,47.97
2018-07-02T03:05:13.136Z,48.00
2018-07-02T03:05:44.736Z,48.23
2018-07-02T03:06:16.328Z,48.38
2018-07-02T03:06:47.919Z,48.56
2018-07-02T03:07:19.549Z,48.71
2018-07-02T03:07:51.186Z,48.82
2018-07-02T03:08:22.811Z,48.86
2018-07-02T03:08:54.468Z,49.00
2018-07-02T03:09:26.075Z,49.09
2018-07-02T03:09:57.709Z,49.25
2018-07-02T03:10:29.334Z,49.36
2018-07-02T03:11:00.970Z,49.47
2018-07-02T03:11:32.590Z,49.57
2018-07-02T03:12:04.180Z,49.64
2018-07-02T03:12:35.781Z,49.75
2018-07-02T03:13:07.394Z,49.85
2018-07-02T03:13:39.035Z,49.92
2018-07-02T03:14:10.672Z,50.00
2018-07-02T03:14:42.278Z,50.07
2018-07-02T03:15:13.905Z,50.18
2018-07-02T03:15:45.533Z,50.25
2018-07-02T03:16:17.129Z,50.30
2018-07-02T03:16:48.757Z,50.34
2018-07-02T03:17:20.384Z,50.43
2018-07-02T03:17:52.021Z,50.49
2018-07-02T03:18:23.642Z,50.57
2018-07-02T03:18:55.266Z,50.66
2018-07-02T03:19:26.852Z,50.72
2018-07-02T03:19:58.457Z,50.82
2018-07-02T03:20:30.147Z,50.89
2018-07-02T03:21:01.691Z,50.98
2018-07-02T03:21:33.294Z,51.07
2018-07-02T03:22:04.911Z,51.12
2018-07-02T03:22:36.504Z,51.14
2018-07-02T03:23:08.112Z,51.21
2018-07-02T03:23:39.743Z,51.29
2018-07-02T03:24:11.391Z,51.36
2018-07-02T03:24:42.989Z,51.42
2018-07-02T03:25:14.601Z,51.45
2018-07-02T03:25:46.238Z,51.50
2018-07-02T03:26:17.854Z,51.57
2018-07-02T03:26:49.469Z,51.59
2018-07-02T03:27:21.060Z,51.64
2018-07-02T03:27:52.685Z,51.69
2018-07-02T03:28:24.301Z,51.74
2018-07-02T03:28:55.934Z,51.80
2018-07-02T03:29:27.562Z,51.85
2018-07-02T03:29:59.193Z,51.87
2018-07-02T03:30:30.785Z,51.91
2018-07-02T03:31:02.389Z,51.93
2018-07-02T03:31:34.084Z,52.00
2018-07-02T03:32:05.712Z,52.04
2018-07-02T03:32:37.317Z,52.08
2018-07-02T03:33:08.937Z,52.14
2018-07-02T03:33:40.560Z,52.18
2018-07-02T03:34:12.205Z,52.22
2018-07-02T03:34:43.818Z,52.25
2018-07-02T03:35:15.425Z,52.25
2018-07-02T03:35:47.017Z,52.29
2018-07-02T03:36:18.617Z,52.33
2018-07-02T03:36:50.223Z,52.36
2018-07-02T03:37:21.833Z,52.40
2018-07-02T03:37:53.441Z,52.45
2018-07-02T03:38:25.064Z,52.48
2018-07-02T03:38:56.714Z,52.50
2018-07-02T03:39:28.342Z,52.53
2018-07-02T03:39:59.956Z,52.54
2018-07-02T03:40:31.574Z,52.59
2018-07-02T03:41:03.199Z,52.61
2018-07-02T03:41:34.809Z,52.64
2018-07-02T03:42:06.413Z,52.68
2018-07-02T03:42:38.039Z,52.70
2018-07-02T03:43:09.659Z,52.72
2018-07-02T03:43:41.260Z,52.74
2018-07-02T03:44:12.891Z,52.79
2018-07-02T03:44:44.483Z,52.80
2018-07-02T03:45:16.085Z,52.85
2018-07-02T03:45:47.717Z,52.87
2018-07-02T03:46:19.321Z,52.90
2018-07-02T03:46:50.912Z,52.92
2018-07-02T03:47:22.517Z,52.93
2018-07-02T03:47:54.145Z,52.95
2018-07-02T03:48:25.747Z,52.98
2018-07-02T03:48:57.349Z,52.99
2018-07-02T03:49:29.001Z,53.00
2018-07-02T03:50:00.637Z,53.03
2018-07-02T03:50:32.256Z,53.07
2018-07-02T03:51:03.853Z,53.08
2018-07-02T03:51:35.485Z,53.10
2018-07-02T03:52:07.160Z,53.11
2018-07-02T03:52:38.721Z,53.14
2018-07-02T03:53:10.325Z,53.16
2018-07-02T03:53:41.918Z,53.15
2018-07-02T03:54:13.549Z,53.18
2018-07-02T03:54:45.165Z,53.18
2018-07-02T03:55:16.797Z,53.19
2018-07-02T03:55:48.434Z,53.20
2018-07-02T03:56:20.030Z,53.21
2018-07-02T03:56:51.621Z,53.21
2018-07-02T03:57:23.236Z,53.20
2018-07-02T03:57:54.839Z,53.19
2018-07-02T03:58:26.430Z,53.15
2018-07-02T03:58:58.016Z,53.12
2018-07-02T03:59:29.632Z,53.10
2018-07-02T04:00:01.248Z,53.09
2018-07-02T04:00:32.861Z,53.07
2018-07-02T04:01:04.465Z,53.05
2018-07-02T04:01:36.093Z,53.04
2018-07-02T04:02:07.688Z,53.03
2018-07-02T04:02:39.294Z,53.04
2018-07-02T04:03:10.915Z,53.08
2018-07-02T04:03:42.499Z,53.09
2018-07-02T04:04:14.125Z,53.08
2018-07-02T04:04:45.781Z,53.07
2018-07-02T04:05:17.395Z,53.05
2018-07-02T04:05:49.003Z,53.05
2018-07-02T04:06:20.623Z,53.03
2018-07-02T04:06:52.241Z,53.01
2018-07-02T04:07:23.839Z,53.00
2018-07-02T04:07:55.449Z,52.99
2018-07-02T04:08:27.073Z,52.99
2018-07-02T04:08:58.673Z,53.01
2018-07-02T04:09:30.329Z,53.08
2018-07-02T04:10:01.962Z,53.11
2018-07-02T04:10:33.596Z,53.10
2018-07-02T04:11:05.199Z,53.09
2018-07-02T04:11:36.820Z,53.08
2018-07-02T04:12:08.498Z,53.05
2018-07-02T04:12:40.083Z,53.01
2018-07-02T04:13:11.706Z,52.99
2018-07-02T04:13:43.341Z,52.97
2018-07-02T04:14:14.956Z,52.95
2018-07-02T04:14:46.589Z,52.93
2018-07-02T04:15:18.198Z,52.92
2018-07-02T04:15:49.802Z,52.90
2018-07-02T04:16:21.416Z,52.88
2018-07-02T04:16:53.022Z,52.84
2018-07-02T04:17:24.629Z,52.82
2018-07-02T04:17:56.253Z,52.78
2018-07-02T04:18:27.871Z,52.75
2018-07-02T04:18:59.464Z,52.73
2018-07-02T04:19:31.107Z,52.75
2018-07-02T04:20:02.746Z,52.70
2018-07-02T04:20:34.354Z,52.65
2018-07-02T04:21:05.981Z,52.56
2018-07-02T04:21:37.618Z,52.48
2018-07-02T04:22:09.244Z,52.36
2018-07-02T04:22:40.850Z,52.24
2018-07-02T04:23:12.536Z,52.07
2018-07-02T04:23:44.159Z,51.85
2018-07-02T04:24:15.792Z,51.57
2018-07-02T04:24:47.395Z,51.19
2018-07-02T04:25:19.030Z,50.73
2018-07-02T04:25:50.687Z,50.13
2018-07-02T04:26:22.250Z,49.44
2018-07-02T04:26:53.860Z,48.73
2018-07-02T04:27:25.469Z,48.05
2018-07-02T04:27:57.060Z,47.50
2018-07-02T04:28:28.686Z,47.06
2018-07-02T04:29:00.301Z,46.71
2018-07-02T04:29:31.965Z,46.46
2018-07-02T04:30:03.560Z,46.29
2018-07-02T04:30:35.181Z,46.17
2018-07-02T04:31:06.794Z,46.05
2018-07-02T04:31:38.425Z,45.95
2018-07-02T04:32:10.031Z,45.84
2018-07-02T04:32:41.657Z,45.74
2018-07-02T04:33:13.257Z,45.62
2018-07-02T04:33:44.896Z,45.53
2018-07-02T04:34:16.534Z,45.39
2018-07-02T04:34:48.197Z,45.17
2018-07-02T04:35:19.820Z,44.88
2018-07-02T04:35:51.461Z,44.57
2018-07-02T04:36:23.065Z,44.26
2018-07-02T04:36:54.697Z,43.98
2018-07-02T04:37:26.336Z,43.61
2018-07-02T04:37:57.957Z,43.25
2018-07-02T04:38:29.571Z,42.81
2018-07-02T04:39:01.183Z,42.40
2018-07-02T04:39:32.812Z,41.98
2018-07-02T04:40:04.449Z,41.56
2018-07-02T04:40:36.089Z,41.25
2018-07-02T04:41:07.705Z,40.98
2018-07-02T04:41:39.345Z,40.79
2018-07-02T04:42:10.972Z,40.71
2018-07-02T04:42:43.653Z,40.57
2018-07-02T04:43:15.283Z,40.49
2018-07-02T04:43:46.912Z,40.49
2018-07-02T04:44:18.549Z,40.54
2018-07-02T04:44:50.188Z,40.72
2018-07-02T04:45:21.821Z,40.96
2018-07-02T04:45:53.438Z,41.28
2018-07-02T04:46:25.042Z,41.60
2018-07-02T04:46:56.662Z,41.94
2018-07-02T04:47:28.298Z,42.23
2018-07-02T04:47:59.933Z,42.49
2018-07-02T04:48:31.545Z,42.69
2018-07-02T04:49:03.177Z,42.88
2018-07-02T04:49:34.813Z,43.00
2018-07-02T04:50:06.479Z,43.08
2018-07-02T04:50:38.093Z,43.03
2018-07-02T04:51:09.720Z,42.89
2018-07-02T04:51:41.353Z,42.71
2018-07-02T04:52:12.970Z,42.49
2018-07-02T04:52:44.572Z,42.30
2018-07-02T04:53:16.202Z,42.07
2018-07-02T04:53:47.837Z,41.81
2018-07-02T04:54:19.443Z,41.52
2018-07-02T04:54:51.081Z,41.25
2018-07-02T04:55:22.683Z,41.01
2018-07-02T04:55:54.301Z,40.81
2018-07-02T04:56:25.907Z,40.59
2018-07-02T04:56:57.537Z,40.39
2018-07-02T04:57:29.178Z,40.22
2018-07-02T04:58:00.770Z,40.07
2018-07-02T04:58:32.348Z,39.90
2018-07-02T04:59:03.973Z,39.73
2018-07-02T04:59:35.614Z,39.66
2018-07-02T05:00:07.255Z,39.63
2018-07-02T05:00:38.946Z,39.67
2018-07-02T05:01:10.545Z,39.73
2018-07-02T05:01:42.139Z,39.84
2018-07-02T05:02:13.730Z,39.98
2018-07-02T05:02:45.313Z,40.26
2018-07-02T05:03:16.893Z,40.56
2018-07-02T05:03:48.499Z,40.87
2018-07-02T05:04:20.110Z,41.23
2018-07-02T05:04:51.711Z,41.60
2018-07-02T05:05:23.329Z,42.00
2018-07-02T05:05:54.910Z,42.36
2018-07-02T05:06:26.498Z,42.70
2018-07-02T05:06:58.106Z,43.04
2018-07-02T05:07:29.704Z,43.38
2018-07-02T05:08:01.309Z,43.78
2018-07-02T05:08:32.904Z,44.25
2018-07-02T05:09:04.472Z,44.78
2018-07-02T05:09:36.082Z,45.37
2018-07-02T05:10:07.716Z,45.94
2018-07-02T05:10:39.321Z,46.44
2018-07-02T05:11:10.929Z,46.86
2018-07-02T05:11:42.504Z,47.29
2018-07-02T05:12:14.096Z,47.66
2018-07-02T05:12:45.677Z,48.02
2018-07-02T05:13:17.281Z,48.34
2018-07-02T05:13:48.856Z,48.64
2018-07-02T05:14:20.457Z,48.91
2018-07-02T05:14:52.028Z,49.18
2018-07-02T05:15:23.624Z,49.44
2018-07-02T05:15:55.211Z,49.67
2018-07-02T05:16:26.825Z,49.88
2018-07-02T05:16:58.408Z,50.06
2018-07-02T05:17:30.039Z,50.31
2018-07-02T05:18:01.714Z,50.51
2018-07-02T05:18:33.328Z,50.69
2018-07-02T05:19:04.914Z,50.86
2018-07-02T05:19:36.521Z,51.08
2018-07-02T05:20:08.160Z,51.29
2018-07-02T05:20:39.748Z,51.46
2018-07-02T05:21:11.348Z,51.63
2018-07-02T05:21:42.924Z,51.77
2018-07-02T05:22:14.492Z,51.93
2018-07-02T05:22:46.073Z,52.12
2018-07-02T05:23:17.657Z,52.29
2018-07-02T05:23:49.256Z,52.45
2018-07-02T05:24:20.837Z,52.56
2018-07-02T05:24:52.436Z,52.66
2018-07-02T05:25:24.073Z,52.73
2018-07-02T05:25:55.677Z,52.85
2018-07-02T05:26:27.289Z,52.95
2018-07-02T05:26:58.863Z,53.03
2018-07-02T05:27:30.441Z,53.11
2018-07-02T05:28:02.101Z,53.19
2018-07-02T05:28:33.676Z,53.25
2018-07-02T05:29:05.276Z,53.28
2018-07-02T05:29:36.882Z,53.33
2018-07-02T05:30:08.465Z,53.38
2018-07-02T05:30:40.093Z,53.41
2018-07-02T05:31:11.697Z,53.45
2018-07-02T05:31:43.306Z,53.51
2018-07-02T05:32:14.897Z,53.56
2018-07-02T05:32:46.488Z,53.59
2018-07-02T05:33:18.074Z,53.64
2018-07-02T05:33:49.662Z,53.70
2018-07-02T05:34:21.261Z,53.73
2018-07-02T05:34:52.855Z,53.74
2018-07-02T05:35:24.494Z,53.75
2018-07-02T05:35:56.086Z,53.76
2018-07-02T05:36:27.681Z,53.76
2018-07-02T05:36:59.289Z,53.77
2018-07-02T05:37:30.905Z,53.78
2018-07-02T05:38:02.509Z,53.80
2018-07-02T05:38:34.114Z,53.80
2018-07-02T05:39:05.684Z,53.82
2018-07-02T05:39:37.261Z,53.84
2018-07-02T05:40:08.866Z,53.83
2018-07-02T05:40:40.494Z,53.84
2018-07-02T05:41:12.091Z,53.85
2018-07-02T05:41:43.827Z,53.86
2018-07-02T05:42:15.289Z,53.86
2018-07-02T05:42:46.864Z,53.87
2018-07-02T05:43:18.473Z,53.89
2018-07-02T05:43:50.081Z,53.91
2018-07-02T05:44:21.685Z,53.93
2018-07-02T05:44:53.283Z,53.94
2018-07-02T05:45:24.918Z,53.97
2018-07-02T05:45:56.489Z,53.97
2018-07-02T05:46:28.056Z,54.01
2018-07-02T05:46:59.661Z,54.01
2018-07-02T05:47:31.266Z,54.03
2018-07-02T05:48:02.878Z,54.03
2018-07-02T05:48:34.522Z,54.03
2018-07-02T05:49:06.075Z,54.04
2018-07-02T05:49:37.677Z,54.05
2018-07-02T05:50:09.262Z,54.04
2018-07-02T05:50:40.880Z,54.05
2018-07-02T05:51:12.486Z,54.06
2018-07-02T05:51:44.056Z,54.06
2018-07-02T05:52:15.637Z,54.08
2018-07-02T05:52:47.227Z,54.09
2018-07-02T05:53:18.832Z,54.10
2018-07-02T05:53:50.438Z,54.11
2018-07-02T05:54:22.018Z,54.11
2018-07-02T05:54:53.645Z,54.14
2018-07-02T05:55:25.302Z,54.15
2018-07-02T05:55:56.909Z,54.16
2018-07-02T05:56:28.498Z,54.17
2018-07-02T05:57:00.092Z,54.17
2018-07-02T05:57:31.697Z,54.17
2018-07-02T05:58:03.512Z,54.18
2018-07-02T05:58:34.884Z,54.18
2018-07-02T05:59:06.452Z,54.18
2018-07-02T05:59:38.033Z,54.18
2018-07-02T06:00:09.644Z,54.21
2018-07-02T06:00:41.287Z,54.18
2018-07-02T06:01:12.858Z,54.21
2018-07-02T06:01:44.445Z,54.23
2018-07-02T06:02:16.021Z,54.22
2018-07-02T06:02:47.615Z,54.23
2018-07-02T06:03:19.197Z,54.24
2018-07-02T06:03:50.797Z,54.27
2018-07-02T06:04:22.382Z,54.25
2018-07-02T06:04:53.971Z,54.25
2018-07-02T06:05:25.659Z,54.27
2018-07-02T06:05:57.280Z,54.28
2018-07-02T06:06:28.883Z,54.29
2018-07-02T06:07:00.482Z,54.29
2018-07-02T06:07:32.071Z,54.30
2018-07-02T06:08:03.676Z,54.30
2018-07-02T06:08:35.271Z,54.31
2018-07-02T06:09:06.858Z,54.32
2018-07-02T06:09:38.465Z,54.32
2018-07-02T06:10:10.048Z,54.32
2018-07-02T06:10:41.687Z,54.32
2018-07-02T06:11:13.290Z,54.33
2018-07-02T06:11:44.877Z,54.34
2018-07-02T06:12:16.444Z,54.36
2018-07-02T06:12:48.065Z,54.36
2018-07-02T06:13:19.644Z,54.37
2018-07-02T06:13:51.221Z,54.37
2018-07-02T06:14:22.822Z,54.37
2018-07-02T06:14:54.420Z,54.38
2018-07-02T06:15:26.025Z,54.37
2018-07-02T06:15:57.647Z,54.38
2018-07-02T06:16:29.292Z,54.36
2018-07-02T06:17:00.856Z,54.36
2018-07-02T06:17:32.470Z,54.40
2018-07-02T06:18:04.050Z,54.39
2018-07-02T06:18:35.649Z,54.40
2018-07-02T06:19:07.224Z,54.40
2018-07-02T06:19:38.830Z,54.40
2018-07-02T06:20:10.428Z,54.40
2018-07-02T06:20:42.057Z,54.40
2018-07-02T06:21:13.662Z,54.40
2018-07-02T06:21:45.265Z,54.40
2018-07-02T06:22:16.873Z,54.39
2018-07-02T06:22:48.481Z,54.39
2018-07-02T06:23:20.084Z,54.39
2018-07-02T06:23:51.689Z,54.39
2018-07-02T06:24:23.297Z,54.38
2018-07-02T06:24:54.905Z,54.35
2018-07-02T06:25:26.510Z,54.34
2018-07-02T06:25:58.121Z,54.32
2018-07-02T06:26:29.701Z,54.32
2018-07-02T06:27:01.313Z,54.31
2018-07-02T06:27:32.893Z,54.29
2018-07-02T06:28:04.544Z,54.28
2018-07-02T06:28:36.149Z,54.27
2018-07-02T06:29:07.753Z,54.26
2018-07-02T06:29:39.329Z,54.26
2018-07-02T06:30:10.896Z,54.25
2018-07-02T06:30:42.487Z,54.25
2018-07-02T06:31:14.102Z,54.22
2018-07-02T06:31:45.682Z,54.22
2018-07-02T06:32:17.272Z,54.21
2018-07-02T06:32:48.881Z,54.18
2018-07-02T06:33:20.474Z,54.15
2018-07-02T06:33:52.062Z,54.12
2018-07-02T06:34:23.628Z,54.11
2018-07-02T06:34:55.209Z,54.09
2018-07-02T06:35:26.795Z,54.04
2018-07-02T06:35:58.435Z,54.01
2018-07-02T06:36:30.018Z,54.01
2018-07-02T06:37:01.600Z,53.99
2018-07-02T06:37:33.177Z,53.96
2018-07-02T06:38:04.768Z,53.92
2018-07-02T06:38:36.363Z,53.89
2018-07-02T06:39:07.952Z,53.85
2018-07-02T06:39:39.562Z,53.79
2018-07-02T06:40:11.201Z,53.76
2018-07-02T06:40:42.809Z,53.71
2018-07-02T06:41:14.446Z,53.70
2018-07-02T06:41:46.040Z,53.70
2018-07-02T06:42:17.622Z,53.65
2018-07-02T06:42:49.202Z,53.64
2018-07-02T06:43:20.771Z,53.59
2018-07-02T06:43:52.338Z,53.59
2018-07-02T06:44:23.925Z,53.60
2018-07-02T06:44:55.517Z,53.57
2018-07-02T06:45:27.130Z,53.59
2018-07-02T06:45:58.723Z,53.53
2018-07-02T06:46:30.344Z,53.51
2018-07-02T06:47:01.933Z,53.51